createdAt,value
2022-07-31T00:02:41.015Z,95.40
2022-07-31T00:06:56.374Z,95.40
2022-07-31T00:11:11.686Z,95.40
2022-07-31T00:15:25.999Z,95.40
2022-07-31T00:19:41.593Z,95.50
2022-07-31T00:23:58.333Z,95.40
2022-07-31T00:28:12.424Z,95.40
2022-07-31T00:32:26.128Z,95.40
2022-07-31T00:36:40.158Z,95.50
2022-07-31T00:40:56.747Z,95.50
2022-07-31T00:45:13.698Z,95.50
2022-07-31T00:49:37.278Z,95.50
2022-07-31T00:53:51.806Z,95.50
2022-07-31T00:58:07.235Z,95.40
2022-07-31T01:02:21.178Z,95.40
2022-07-31T01:06:37.591Z,95.40
2022-07-31T01:10:58.971Z,95.40
2022-07-31T01:15:16.367Z,95.40
2022-07-31T01:19:39.767Z,95.40
2022-07-31T01:24:30.455Z,95.50
2022-07-31T01:29:07.512Z,95.50
2022-07-31T01:33:29.851Z,95.60
2022-07-31T01:37:48.772Z,95.60
2022-07-31T01:42:06.174Z,95.60
2022-07-31T01:46:22.435Z,95.60
2022-07-31T01:50:42.315Z,95.60
2022-07-31T01:55:00.855Z,95.60
2022-07-31T01:59:22.484Z,95.60
2022-07-31T02:04:11.236Z,95.60
2022-07-31T02:08:26.672Z,95.60
2022-07-31T02:12:42.792Z,95.70
2022-07-31T02:16:57.455Z,95.70
2022-07-31T02:21:27.313Z,95.70
2022-07-31T02:25:42.205Z,95.70
2022-07-31T02:29:58.660Z,95.70
2022-07-31T02:34:14.722Z,95.70
2022-07-31T02:38:30.113Z,95.70
2022-07-31T02:42:44.503Z,95.70
2022-07-31T02:46:59.562Z,95.60
2022-07-31T02:51:13.826Z,95.60
2022-07-31T02:55:30.302Z,95.60
2022-07-31T02:59:45.067Z,95.70
2022-07-31T03:03:59.406Z,95.90
2022-07-31T03:08:15.377Z,95.80
2022-07-31T03:12:34.146Z,95.80
2022-07-31T03:16:49.494Z,95.70
2022-07-31T03:21:03.347Z,95.70
2022-07-31T03:25:21.660Z,95.70
2022-07-31T03:29:43.202Z,95.80
2022-07-31T03:33:58.113Z,95.80
2022-07-31T03:38:41.125Z,95.80
2022-07-31T03:42:51.205Z,95.80
2022-07-31T03:47:08.294Z,95.90
2022-07-31T03:51:22.358Z,96.20
2022-07-31T03:55:38.860Z,96.70
2022-07-31T03:59:56.319Z,96.90
2022-07-31T04:04:13.534Z,96.90
2022-07-31T04:08:42.540Z,96.80
2022-07-31T04:12:56.506Z,96.50
2022-07-31T04:17:11.323Z,96.00
2022-07-31T04:21:26.480Z,95.40
2022-07-31T04:25:40.301Z,94.90
2022-07-31T04:30:12.631Z,94.30
2022-07-31T04:34:27.050Z,93.80
2022-07-31T04:38:42.698Z,93.30
2022-07-31T04:42:57.978Z,92.40
2022-07-31T04:47:12.096Z,91.60
2022-07-31T04:51:29.756Z,90.40
2022-07-31T04:56:05.466Z,89.70
2022-07-31T05:00:19.470Z,88.30
2022-07-31T05:04:33.578Z,86.00
2022-07-31T05:08:47.483Z,83.40
2022-07-31T05:13:02.816Z,80.60
2022-07-31T05:17:18.329Z,77.60
2022-07-31T05:22:03.796Z,74.00
2022-07-31T05:26:27.736Z,69.30
2022-07-31T05:30:43.123Z,65.40
2022-07-31T05:34:57.239Z,61.50
2022-07-31T05:39:12.305Z,59.80
2022-07-31T05:43:25.972Z,56.90
2022-07-31T05:47:51.883Z,55.30
2022-07-31T05:52:06.730Z,53.50
2022-07-31T05:56:20.621Z,51.70
2022-07-31T06:00:37.613Z,51.00
2022-07-31T06:04:53.103Z,50.30
2022-07-31T06:09:06.884Z,49.10
2022-07-31T06:13:30.169Z,47.80
2022-07-31T06:17:48.844Z,46.60
2022-07-31T06:22:12.287Z,45.30
2022-07-31T06:26:27.592Z,45.20
2022-07-31T06:30:41.853Z,43.80
2022-07-31T06:34:55.948Z,43.00
2022-07-31T06:39:11.938Z,42.20
2022-07-31T06:43:46.116Z,41.90
2022-07-31T06:48:25.731Z,42.70
2022-07-31T06:52:49.991Z,42.80
2022-07-31T06:57:05.399Z,42.80
2022-07-31T07:01:19.338Z,43.30
2022-07-31T07:05:33.284Z,44.50
2022-07-31T07:09:48.632Z,44.70
2022-07-31T07:14:17.298Z,45.70
2022-07-31T07:18:31.172Z,45.60
2022-07-31T07:22:47.891Z,43.90
2022-07-31T07:27:14.571Z,42.80
2022-07-31T07:31:29.843Z,42.20
2022-07-31T07:35:44.760Z,40.40
2022-07-31T07:40:04.502Z,38.90
2022-07-31T07:44:18.399Z,37.20
2022-07-31T07:48:33.554Z,36.20
2022-07-31T07:53:05.250Z,36.10
2022-07-31T07:57:40.459Z,35.80
2022-07-31T08:02:13.655Z,34.40
2022-07-31T08:06:29.028Z,34.30
2022-07-31T08:10:43.261Z,33.80
2022-07-31T08:15:10.918Z,33.70
2022-07-31T08:19:39.961Z,32.60
2022-07-31T08:23:55.620Z,32.50
2022-07-31T08:28:13.797Z,32.10
2022-07-31T08:32:33.617Z,31.50
2022-07-31T08:37:50.797Z,31.00
2022-07-31T08:41:54.544Z,31.50
2022-07-31T08:46:10.620Z,32.20
2022-07-31T08:50:27.861Z,32.00
2022-07-31T08:54:46.039Z,31.90
2022-07-31T08:59:01.867Z,31.60
2022-07-31T09:03:16.559Z,31.10
2022-07-31T09:07:32.889Z,30.80
2022-07-31T09:11:49.939Z,30.30
2022-07-31T09:16:30.889Z,30.00
2022-07-31T09:20:56.097Z,29.40
2022-07-31T09:25:16.058Z,29.10
2022-07-31T09:29:38.859Z,28.90
2022-07-31T09:33:56.400Z,28.80
2022-07-31T09:38:13.174Z,28.70
2022-07-31T09:42:55.303Z,28.60
2022-07-31T09:47:23.064Z,28.20
2022-07-31T09:51:41.134Z,27.70
2022-07-31T09:55:58.129Z,27.80
2022-07-31T10:00:17.185Z,27.80
2022-07-31T10:04:32.740Z,27.40
2022-07-31T10:08:50.522Z,27.10
2022-07-31T10:13:13.239Z,26.70
2022-07-31T10:17:36.193Z,26.50
2022-07-31T10:22:24.294Z,26.90
2022-07-31T10:26:59.752Z,27.00
2022-07-31T10:31:13.888Z,27.40
2022-07-31T10:35:30.217Z,27.90
2022-07-31T10:40:02.409Z,27.10
2022-07-31T10:44:28.849Z,26.80
2022-07-31T10:49:08.518Z,26.40
2022-07-31T10:53:51.412Z,25.90
2022-07-31T10:58:28.030Z,25.70
2022-07-31T11:03:16.207Z,25.70
2022-07-31T11:07:48.935Z,25.20
2022-07-31T11:12:22.654Z,24.80
2022-07-31T11:16:55.909Z,25.00
2022-07-31T11:21:39.907Z,25.20
2022-07-31T11:25:53.946Z,25.20
2022-07-31T11:30:13.528Z,25.00
2022-07-31T11:34:27.809Z,24.80
2022-07-31T11:38:46.813Z,25.20
2022-07-31T11:48:12.433Z,25.50
2022-07-31T11:52:30.673Z,25.90
2022-07-31T11:56:48.856Z,26.00
2022-07-31T12:01:05.555Z,26.90
2022-07-31T12:05:19.351Z,27.40
2022-07-31T12:10:00.879Z,28.20
2022-07-31T12:14:29.088Z,29.30
2022-07-31T12:18:51.497Z,30.40
2022-07-31T12:23:06.961Z,31.80
2022-07-31T12:27:42.076Z,33.10
2022-07-31T12:31:58.769Z,34.20
2022-07-31T12:36:16.649Z,34.60
2022-07-31T12:40:30.709Z,34.30
2022-07-31T12:44:49.331Z,34.60
2022-07-31T12:49:04.872Z,34.80
2022-07-31T12:53:18.677Z,34.90
2022-07-31T12:57:32.650Z,34.50
2022-07-31T13:01:46.535Z,34.80
2022-07-31T13:06:01.675Z,34.80
2022-07-31T13:10:23.801Z,34.70
2022-07-31T13:14:38.575Z,35.00
2022-07-31T13:31:31.690Z,34.60
2022-07-31T13:35:45.443Z,34.70
2022-07-31T13:39:59.267Z,35.20
2022-07-31T13:44:12.981Z,35.40
2022-07-31T13:48:28.195Z,35.40
2022-07-31T13:52:41.951Z,35.40
2022-07-31T13:56:56.271Z,35.60
2022-07-31T14:01:10.177Z,35.80
2022-07-31T14:05:26.463Z,35.90
2022-07-31T14:15:18.211Z,35.90
2022-07-31T14:19:40.519Z,36.30
2022-07-31T14:23:59.747Z,36.60
2022-07-31T14:28:13.469Z,36.40
2022-07-31T14:32:27.304Z,36.20
2022-07-31T14:36:42.275Z,36.10
2022-07-31T14:40:57.363Z,36.40
2022-07-31T14:45:11.981Z,36.70
2022-07-31T14:49:25.811Z,36.90
2022-07-31T14:53:59.672Z,36.80
2022-07-31T14:58:14.799Z,37.10
2022-07-31T15:02:28.648Z,37.50
2022-07-31T15:06:55.963Z,37.70
2022-07-31T15:11:16.146Z,37.80
2022-07-31T15:15:31.913Z,38.00
2022-07-31T15:19:48.075Z,37.90
2022-07-31T15:24:01.907Z,37.60
2022-07-31T15:28:15.616Z,37.30
2022-07-31T15:32:30.835Z,36.60
2022-07-31T15:36:44.486Z,36.00
2022-07-31T15:40:58.267Z,35.40
2022-07-31T15:45:13.383Z,35.20
2022-07-31T15:49:28.606Z,35.40
2022-07-31T15:53:56.985Z,35.80
2022-07-31T15:58:10.748Z,35.70
2022-07-31T16:02:25.280Z,35.40
2022-07-31T16:06:40.428Z,35.00
2022-07-31T16:10:55.079Z,35.00
2022-07-31T16:15:11.296Z,35.00
2022-07-31T16:19:25.211Z,35.10
2022-07-31T16:23:40.663Z,35.30
2022-07-31T16:27:54.941Z,35.20
2022-07-31T16:32:09.220Z,35.20
2022-07-31T16:36:23.111Z,34.90
2022-07-31T16:40:38.260Z,35.00
2022-07-31T16:44:54.447Z,35.20
2022-07-31T16:49:28.367Z,35.40
2022-07-31T16:54:14.562Z,36.50
2022-07-31T16:58:19.505Z,36.00
2022-07-31T17:02:38.754Z,36.30
2022-07-31T17:06:52.584Z,36.80
2022-07-31T17:11:06.941Z,37.20
2022-07-31T17:15:22.502Z,37.50
2022-07-31T17:19:45.850Z,37.80
2022-07-31T17:24:01.096Z,38.00
2022-07-31T17:28:17.725Z,38.30
2022-07-31T17:32:33.909Z,38.50
2022-07-31T17:36:50.264Z,38.80
2022-07-31T17:41:04.637Z,39.00
2022-07-31T17:45:20.483Z,39.20
2022-07-31T17:49:37.890Z,39.40
2022-07-31T17:53:55.299Z,39.70
2022-07-31T17:58:12.724Z,40.00
2022-07-31T18:02:26.565Z,40.10
2022-07-31T18:06:41.719Z,40.20
2022-07-31T18:10:55.419Z,40.50
2022-07-31T18:15:11.928Z,40.80
2022-07-31T18:19:25.714Z,41.10
2022-07-31T18:23:43.664Z,41.20
2022-07-31T18:28:01.310Z,41.60
2022-07-31T18:32:15.001Z,41.80
2022-07-31T18:36:28.745Z,42.10
2022-07-31T18:40:43.834Z,42.30
2022-07-31T18:44:58.296Z,42.60
2022-07-31T18:50:58.844Z,43.00
2022-07-31T18:53:46.447Z,44.10
2022-07-31T18:58:02.134Z,43.50
2022-07-31T19:02:20.606Z,43.70
2022-07-31T19:06:35.839Z,43.90
2022-07-31T19:10:53.242Z,43.90
2022-07-31T19:15:09.509Z,44.00
2022-07-31T19:19:23.191Z,44.00
2022-07-31T19:23:37.858Z,43.90
2022-07-31T19:27:52.027Z,43.90
2022-07-31T19:32:07.896Z,43.70
2022-07-31T19:36:21.884Z,43.60
2022-07-31T19:40:35.792Z,44.10
2022-07-31T19:44:49.574Z,44.50
2022-07-31T19:49:05.082Z,44.80
2022-07-31T19:53:18.915Z,44.80
2022-07-31T19:57:32.698Z,44.90
2022-07-31T20:01:46.894Z,44.90
2022-07-31T20:06:02.098Z,45.10
2022-07-31T20:10:15.972Z,45.10
2022-07-31T20:14:29.752Z,45.10
2022-07-31T20:18:43.792Z,45.10
2022-07-31T20:22:58.943Z,45.40
2022-07-31T20:27:12.802Z,45.70
2022-07-31T20:31:26.960Z,46.80
2022-07-31T20:35:48.435Z,47.10
2022-07-31T20:40:06.919Z,47.50
2022-07-31T20:44:21.009Z,47.90
2022-07-31T20:48:38.978Z,48.40
2022-07-31T20:52:52.723Z,48.80
2022-07-31T20:57:08.075Z,49.30
2022-07-31T21:01:22.963Z,49.60
2022-07-31T21:05:36.922Z,49.90
2022-07-31T21:09:50.751Z,50.20
2022-07-31T21:14:05.938Z,50.50
2022-07-31T21:18:20.963Z,50.90
2022-07-31T21:22:35.063Z,51.00
2022-07-31T21:26:51.847Z,51.40
2022-07-31T21:31:12.393Z,51.70
2022-07-31T21:35:36.981Z,51.90
2022-07-31T21:39:52.411Z,52.10
2022-07-31T21:44:06.638Z,52.30
2022-07-31T21:48:24.972Z,52.50
2022-07-31T21:52:39.197Z,52.80
2022-07-31T21:56:53.605Z,53.00
2022-07-31T22:01:10.558Z,53.20
2022-07-31T22:05:43.509Z,53.40
2022-07-31T22:09:57.890Z,53.70
2022-07-31T22:14:11.804Z,54.00
2022-07-31T22:18:26.811Z,54.60
2022-07-31T22:22:46.281Z,54.70
2022-07-31T22:27:18.771Z,54.90
2022-07-31T22:31:32.825Z,55.10
2022-07-31T22:35:59.456Z,55.20
2022-07-31T22:40:18.330Z,55.30
2022-07-31T22:44:33.505Z,55.60
2022-07-31T22:48:47.542Z,55.60
2022-07-31T22:53:01.621Z,55.90
2022-07-31T22:57:17.346Z,57.10
2022-07-31T23:01:34.027Z,56.80
2022-07-31T23:06:28.184Z,57.20
2022-07-31T23:10:21.752Z,57.70
2022-07-31T23:14:37.235Z,58.00
2022-07-31T23:18:51.253Z,58.50
2022-07-31T23:23:04.983Z,59.00
2022-07-31T23:27:18.809Z,59.50
2022-07-31T23:31:34.207Z,60.10
2022-07-31T23:35:48.108Z,61.20
2022-07-31T23:40:02.067Z,61.60
2022-07-31T23:44:18.623Z,61.70
2022-07-31T23:48:40.263Z,61.70
2022-07-31T23:52:54.262Z,61.80
2022-07-31T23:57:08.027Z,61.80
